createdAt,value
2022-12-23T00:00:20.376Z,2.55
2022-12-23T00:03:23.821Z,2.63
2022-12-23T00:06:26.740Z,2.63
2022-12-23T00:09:29.943Z,2.67
2022-12-23T00:12:51.113Z,2.66
2022-12-23T00:16:07.316Z,2.67
2022-12-23T00:19:10.780Z,2.66
2022-12-23T00:22:13.832Z,2.66
2022-12-23T00:25:16.823Z,2.69
2022-12-23T00:28:22.671Z,2.70
2022-12-23T00:31:25.872Z,2.67
2022-12-23T00:34:28.966Z,2.68
2022-12-23T00:37:31.470Z,2.75
2022-12-23T00:40:53.748Z,2.78
2022-12-23T00:43:56.451Z,2.78
2022-12-23T00:46:59.534Z,2.79
2022-12-23T00:50:02.169Z,2.80
2022-12-23T00:53:05.957Z,2.81
2022-12-23T00:56:08.577Z,2.82
2022-12-23T00:59:11.613Z,2.81
2022-12-23T01:02:32.577Z,2.81
2022-12-23T01:05:38.888Z,2.78
2022-12-23T01:08:41.626Z,2.76
2022-12-23T01:11:44.508Z,2.77
2022-12-23T01:14:47.151Z,2.77
2022-12-23T01:17:50.009Z,2.78
2022-12-23T01:20:52.608Z,2.80
2022-12-23T01:23:55.545Z,2.81
2022-12-23T01:26:58.449Z,2.79
2022-12-23T01:30:01.324Z,2.78
2022-12-23T01:33:04.015Z,2.77
2022-12-23T01:36:08.454Z,2.75
2022-12-23T01:39:11.076Z,2.73
2022-12-23T01:42:34.531Z,2.69
2022-12-23T01:45:37.502Z,2.69
2022-12-23T01:48:41.991Z,2.70
2022-12-23T01:51:44.649Z,2.71
2022-12-23T01:54:48.045Z,2.69
2022-12-23T01:57:52.300Z,2.62
2022-12-23T02:01:15.947Z,2.59
2022-12-23T02:04:22.120Z,2.70
2022-12-23T02:07:43.256Z,2.68
2022-12-23T02:11:19.933Z,2.66
2022-12-23T02:15:31.163Z,2.65
2022-12-23T02:18:46.289Z,2.66
2022-12-23T02:21:51.875Z,2.67
2022-12-23T02:24:57.631Z,2.69
2022-12-23T02:28:20.408Z,2.68
2022-12-23T02:31:29.920Z,2.65
2022-12-23T02:34:51.816Z,2.63
2022-12-23T02:38:13.895Z,2.59
2022-12-23T02:41:31.615Z,2.59
2022-12-23T02:44:45.134Z,2.58
2022-12-23T02:48:05.531Z,2.57
2022-12-23T02:51:09.224Z,2.58
2022-12-23T02:54:24.141Z,2.58
2022-12-23T02:57:34.945Z,2.54
2022-12-23T03:00:38.778Z,2.52
2022-12-23T03:03:41.827Z,2.49
2022-12-23T03:06:50.050Z,2.49
2022-12-23T03:10:09.114Z,2.50
2022-12-23T03:13:30.505Z,2.51
2022-12-23T03:17:01.219Z,2.50
2022-12-23T03:20:12.787Z,2.49
2022-12-23T03:23:16.770Z,2.47
2022-12-23T03:26:23.274Z,2.46
2022-12-23T03:29:39.166Z,2.45
2022-12-23T03:32:59.736Z,2.36
2022-12-23T03:36:07.666Z,2.45
2022-12-23T03:39:14.620Z,2.45
2022-12-23T03:42:33.913Z,2.27
2022-12-23T03:45:41.724Z,2.43
2022-12-23T03:48:52.563Z,2.43
2022-12-23T03:52:08.090Z,2.42
2022-12-23T03:55:17.378Z,2.44
2022-12-23T03:58:56.556Z,2.03
2022-12-23T04:02:02.649Z,2.45
2022-12-23T04:05:42.830Z,2.43
2022-12-23T04:08:46.559Z,2.42
2022-12-23T04:11:49.796Z,2.42
2022-12-23T04:14:52.352Z,2.41
2022-12-23T04:17:56.841Z,2.41
2022-12-23T04:21:01.066Z,2.38
2022-12-23T04:24:03.940Z,2.43
2022-12-23T04:27:08.023Z,2.41
2022-12-23T04:30:14.025Z,2.39
2022-12-23T04:33:16.873Z,2.40
2022-12-23T04:36:20.080Z,2.41
2022-12-23T04:39:25.759Z,2.43
2022-12-23T04:42:29.457Z,2.41
2022-12-23T04:45:32.706Z,2.15
2022-12-23T04:48:36.260Z,2.39
2022-12-23T04:51:38.745Z,2.37
2022-12-23T04:54:45.913Z,2.30
2022-12-23T04:57:49.244Z,2.25
2022-12-23T05:01:08.378Z,2.19
2022-12-23T05:04:10.987Z,2.15
2022-12-23T05:07:14.101Z,2.12
2022-12-23T05:10:16.884Z,2.08
2022-12-23T05:13:20.237Z,2.06
2022-12-23T05:16:23.152Z,2.01
2022-12-23T05:19:26.680Z,1.98
2022-12-23T05:22:29.337Z,1.95
2022-12-23T05:25:34.058Z,1.93
2022-12-23T05:28:36.666Z,1.86
2022-12-23T05:31:39.553Z,1.94
2022-12-23T05:34:42.163Z,1.95
2022-12-23T05:37:44.990Z,1.96
2022-12-23T05:40:49.928Z,1.97
2022-12-23T05:43:52.856Z,1.93
2022-12-23T05:46:55.488Z,1.94
2022-12-23T05:49:58.316Z,1.85
2022-12-23T05:53:00.945Z,1.89
2022-12-23T05:56:05.940Z,1.88
2022-12-23T05:59:08.457Z,1.87
2022-12-23T06:02:11.540Z,1.85
2022-12-23T06:05:14.759Z,1.83
2022-12-23T06:08:20.546Z,1.75
2022-12-23T06:11:23.409Z,1.81
2022-12-23T06:14:28.986Z,1.81
2022-12-23T06:17:32.978Z,1.80
2022-12-23T06:20:36.485Z,1.81
2022-12-23T06:23:39.672Z,1.80
2022-12-23T06:26:42.345Z,1.79
2022-12-23T06:29:45.630Z,1.77
2022-12-23T06:32:48.234Z,1.77
2022-12-23T06:35:51.161Z,1.69
2022-12-23T06:38:53.888Z,1.80
2022-12-23T06:41:56.946Z,1.79
2022-12-23T06:44:59.524Z,1.78
2022-12-23T06:48:02.888Z,1.76
2022-12-23T06:51:05.905Z,1.74
2022-12-23T06:54:11.597Z,1.70
2022-12-23T06:57:14.297Z,1.68
2022-12-23T07:00:19.035Z,1.67
2022-12-23T07:03:21.784Z,1.66
2022-12-23T07:06:25.051Z,1.69
2022-12-23T07:09:27.869Z,1.66
2022-12-23T07:12:30.947Z,1.67
2022-12-23T07:15:33.578Z,1.60
2022-12-23T07:18:36.900Z,1.70
2022-12-23T07:21:39.474Z,1.70
2022-12-23T07:24:42.397Z,1.71
2022-12-23T07:27:45.044Z,1.72
2022-12-23T07:30:50.490Z,1.75
2022-12-23T07:33:53.201Z,1.76
2022-12-23T07:36:56.202Z,1.54
2022-12-23T07:40:02.148Z,1.70
2022-12-23T07:43:09.468Z,1.77
2022-12-23T07:46:12.090Z,1.80
2022-12-23T07:49:15.099Z,1.82
2022-12-23T07:52:18.188Z,1.85
2022-12-23T07:55:21.244Z,1.84
2022-12-23T07:58:24.237Z,1.86
2022-12-23T08:01:27.179Z,1.83
2022-12-23T08:04:30.395Z,1.85
2022-12-23T08:07:33.016Z,1.84
2022-12-23T08:10:36.149Z,1.86
2022-12-23T08:13:40.306Z,1.88
2022-12-23T08:16:44.335Z,1.88
2022-12-23T08:19:48.331Z,1.89
2022-12-23T08:22:51.122Z,1.89
2022-12-23T08:26:06.315Z,1.90
2022-12-23T08:29:10.875Z,1.93
2022-12-23T08:32:13.350Z,1.94
2022-12-23T08:35:16.159Z,1.92
2022-12-23T08:38:18.809Z,2.00
2022-12-23T08:41:25.769Z,2.06
2022-12-23T08:44:28.783Z,2.11
2022-12-23T08:47:31.789Z,2.13
2022-12-23T08:50:42.661Z,2.17
2022-12-23T08:53:47.204Z,2.14
2022-12-23T08:56:49.754Z,2.19
2022-12-23T08:59:52.545Z,2.18
2022-12-23T09:02:55.188Z,2.23
2022-12-23T09:05:58.165Z,2.23
2022-12-23T09:09:00.685Z,2.24
2022-12-23T09:12:04.522Z,2.24
2022-12-23T09:15:07.658Z,2.23
2022-12-23T09:18:11.483Z,2.16
2022-12-23T09:21:18.588Z,2.24
2022-12-23T09:24:21.433Z,2.30
2022-12-23T09:27:24.046Z,2.36
2022-12-23T09:30:28.116Z,2.49
2022-12-23T09:33:31.434Z,2.58
2022-12-23T09:36:34.466Z,2.63
2022-12-23T09:39:37.038Z,2.64
2022-12-23T09:43:09.123Z,2.59
2022-12-23T09:46:22.089Z,2.35
2022-12-23T09:49:25.107Z,2.63
2022-12-23T09:52:40.780Z,2.65
2022-12-23T09:55:55.525Z,2.65
2022-12-23T09:59:39.641Z,2.70
2022-12-23T10:03:01.511Z,2.65
2022-12-23T10:06:13.385Z,2.62
2022-12-23T10:09:17.524Z,2.61
2022-12-23T10:12:39.385Z,2.61
2022-12-23T10:15:48.509Z,2.52
2022-12-23T10:19:04.766Z,2.52
2022-12-23T10:22:13.224Z,2.63
2022-12-23T10:25:18.451Z,2.65
2022-12-23T10:28:21.481Z,2.66
2022-12-23T10:31:40.786Z,2.75
2022-12-23T10:35:21.750Z,2.82
2022-12-23T10:38:30.321Z,2.91
2022-12-23T10:41:32.777Z,2.92
2022-12-23T10:44:49.642Z,2.92
2022-12-23T10:48:07.416Z,2.93
2022-12-23T10:51:19.327Z,2.95
2022-12-23T10:54:33.984Z,3.01
2022-12-23T10:57:36.935Z,3.01
2022-12-23T11:00:45.706Z,3.34
2022-12-23T11:03:58.184Z,3.35
2022-12-23T11:07:34.247Z,3.23
2022-12-23T11:10:32.982Z,3.22
2022-12-23T11:13:39.109Z,3.18
2022-12-23T11:16:45.732Z,3.13
2022-12-23T11:20:09.148Z,3.07
2022-12-23T11:23:36.639Z,3.05
2022-12-23T11:26:39.525Z,3.04
2022-12-23T11:29:49.341Z,3.03
2022-12-23T11:32:52.553Z,3.03
2022-12-23T11:36:04.765Z,2.96
2022-12-23T11:39:10.377Z,3.07
2022-12-23T11:42:18.711Z,3.05
2022-12-23T11:45:23.678Z,3.07
2022-12-23T11:48:28.953Z,2.84
2022-12-23T11:51:31.570Z,3.08
2022-12-23T11:54:34.415Z,3.12
2022-12-23T11:57:43.476Z,3.10
2022-12-23T12:00:56.112Z,3.08
2022-12-23T12:04:04.606Z,3.08
2022-12-23T12:07:07.428Z,3.04
2022-12-23T12:10:19.937Z,3.02
2022-12-23T12:13:40.248Z,2.81
2022-12-23T12:16:56.050Z,3.04
2022-12-23T12:20:18.100Z,3.08
2022-12-23T12:23:27.623Z,3.06
2022-12-23T12:26:32.502Z,3.04
2022-12-23T12:29:47.590Z,3.03
2022-12-23T12:33:05.218Z,3.06
2022-12-23T12:36:28.236Z,3.07
2022-12-23T12:39:46.033Z,3.06
2022-12-23T12:42:59.996Z,3.04
2022-12-23T12:46:21.540Z,2.99
2022-12-23T12:49:43.608Z,3.08
2022-12-23T12:52:46.225Z,3.10
2022-12-23T12:55:55.183Z,3.11
2022-12-23T12:58:58.274Z,3.10
2022-12-23T13:02:23.201Z,3.04
2022-12-23T13:06:01.007Z,3.02
2022-12-23T13:09:16.580Z,2.99
2022-12-23T13:12:53.963Z,2.98
2022-12-23T13:16:21.780Z,2.99
2022-12-23T13:20:12.842Z,2.99
2022-12-23T13:23:43.056Z,2.98
2022-12-23T13:26:59.236Z,2.99
2022-12-23T13:30:17.784Z,2.98
2022-12-23T13:33:29.906Z,3.01
2022-12-23T13:36:51.002Z,2.98
2022-12-23T13:40:19.364Z,2.96
2022-12-23T13:43:23.313Z,2.96
2022-12-23T13:46:25.992Z,2.97
2022-12-23T13:49:44.070Z,2.96
2022-12-23T13:53:17.613Z,2.97
2022-12-23T13:56:29.590Z,2.98
2022-12-23T13:59:44.163Z,2.99
2022-12-23T14:02:50.204Z,2.98
2022-12-23T14:05:53.465Z,2.96
2022-12-23T14:08:56.222Z,2.94
2022-12-23T14:12:10.185Z,2.95
2022-12-23T14:15:22.048Z,2.95
2022-12-23T14:18:44.211Z,2.95
2022-12-23T14:22:05.309Z,2.94
2022-12-23T14:25:20.382Z,2.94
2022-12-23T14:28:39.577Z,2.95
2022-12-23T14:31:44.999Z,2.95
2022-12-23T14:35:16.390Z,2.95
2022-12-23T14:38:27.639Z,2.93
2022-12-23T14:41:38.850Z,2.95
2022-12-23T14:44:45.847Z,2.93
2022-12-23T14:47:48.421Z,2.94
2022-12-23T14:50:59.682Z,2.94
2022-12-23T14:54:02.306Z,2.94
2022-12-23T14:57:08.232Z,2.93
2022-12-23T15:00:10.907Z,2.94
2022-12-23T15:03:13.926Z,2.95
2022-12-23T15:06:29.638Z,2.93
2022-12-23T15:09:36.997Z,2.93
2022-12-23T15:12:43.151Z,2.92
2022-12-23T15:16:00.673Z,2.90
2022-12-23T15:19:23.056Z,2.92
2022-12-23T15:22:32.593Z,2.90
2022-12-23T15:25:39.940Z,2.69
2022-12-23T15:28:42.956Z,2.90
2022-12-23T15:31:48.955Z,2.91
2022-12-23T15:34:52.728Z,2.91
2022-12-23T15:37:56.440Z,2.90
2022-12-23T15:41:05.596Z,2.89
2022-12-23T15:44:12.731Z,2.80
2022-12-23T15:47:24.791Z,2.88
2022-12-23T15:50:29.522Z,2.87
2022-12-23T15:53:35.211Z,2.87
2022-12-23T15:56:39.167Z,2.80
2022-12-23T15:59:41.943Z,2.89
2022-12-23T16:03:03.780Z,2.89
2022-12-23T16:06:16.690Z,2.88
2022-12-23T16:09:19.288Z,2.87
2022-12-23T16:12:24.494Z,2.87
2022-12-23T16:15:29.707Z,2.86
2022-12-23T16:18:47.029Z,2.85
2022-12-23T16:21:50.561Z,2.84
2022-12-23T16:25:12.541Z,2.84
2022-12-23T16:28:21.605Z,2.81
2022-12-23T16:31:24.887Z,2.79
2022-12-23T16:34:30.708Z,2.79
2022-12-23T16:37:33.526Z,2.78
2022-12-23T16:40:36.870Z,2.78
2022-12-23T16:43:40.728Z,2.78
2022-12-23T16:46:48.878Z,2.76
2022-12-23T16:49:51.698Z,2.73
2022-12-23T16:52:54.273Z,2.74
2022-12-23T16:56:00.913Z,2.73
2022-12-23T16:59:04.735Z,2.74
2022-12-23T17:02:18.878Z,2.72
2022-12-23T17:05:22.765Z,2.72
2022-12-23T17:08:25.644Z,2.61
2022-12-23T17:11:41.239Z,2.68
2022-12-23T17:14:44.687Z,2.66
2022-12-23T17:17:48.477Z,2.64
2022-12-23T17:20:51.810Z,2.60
2022-12-23T17:23:56.814Z,2.58
2022-12-23T17:26:59.629Z,2.55
2022-12-23T17:30:02.217Z,2.55
2022-12-23T17:33:05.598Z,2.54
2022-12-23T17:36:09.639Z,2.49
2022-12-23T17:39:12.825Z,2.57
2022-12-23T17:42:25.250Z,2.56
2022-12-23T17:45:30.927Z,2.55
2022-12-23T17:48:33.541Z,2.51
2022-12-23T17:51:36.615Z,2.25
2022-12-23T17:54:39.943Z,2.45
2022-12-23T17:57:42.749Z,2.37
2022-12-23T18:00:47.523Z,2.41
2022-12-23T18:03:51.800Z,2.40
2022-12-23T18:06:54.272Z,2.43
2022-12-23T18:09:57.320Z,3.20
2022-12-23T18:13:06.110Z,2.91
2022-12-23T18:16:11.419Z,2.79
2022-12-23T18:19:19.793Z,2.72
2022-12-23T18:22:24.065Z,2.65
2022-12-23T18:25:27.528Z,2.60
2022-12-23T18:28:30.452Z,2.55
2022-12-23T18:31:33.334Z,2.52
2022-12-23T18:34:36.175Z,2.52
2022-12-23T18:37:38.722Z,2.49
2022-12-23T18:40:42.714Z,2.48
2022-12-23T18:43:46.584Z,2.47
2022-12-23T18:46:50.396Z,2.46
2022-12-23T18:49:53.380Z,2.44
2022-12-23T18:52:58.021Z,2.42
2022-12-23T18:56:01.259Z,2.41
2022-12-23T18:59:04.493Z,2.32
2022-12-23T19:02:10.477Z,2.37
2022-12-23T19:05:36.901Z,2.30
2022-12-23T19:08:40.439Z,2.33
2022-12-23T19:11:43.552Z,2.32
2022-12-23T19:14:46.564Z,2.28
2022-12-23T19:17:50.709Z,2.28
2022-12-23T19:20:56.429Z,2.21
2022-12-23T19:24:00.312Z,2.22
2022-12-23T19:27:03.227Z,2.28
2022-12-23T19:30:13.941Z,2.29
2022-12-23T19:33:19.248Z,2.30
2022-12-23T19:36:23.108Z,2.29
2022-12-23T19:39:31.094Z,2.22
2022-12-23T19:42:34.674Z,2.22
2022-12-23T19:45:37.607Z,2.20
2022-12-23T19:48:40.668Z,2.22
2022-12-23T19:51:43.611Z,2.20
2022-12-23T19:54:47.505Z,2.21
2022-12-23T19:57:50.065Z,2.24
2022-12-23T20:00:53.853Z,2.26
2022-12-23T20:03:57.124Z,2.17
2022-12-23T20:06:59.931Z,2.26
2022-12-23T20:10:05.025Z,2.22
2022-12-23T20:13:09.399Z,2.29
2022-12-23T20:16:16.606Z,2.28
2022-12-23T20:19:19.855Z,2.24
2022-12-23T20:22:24.000Z,2.24
2022-12-23T20:25:27.086Z,2.24
2022-12-23T20:28:32.015Z,2.23
2022-12-23T20:31:37.657Z,2.22
2022-12-23T20:34:41.886Z,2.19
2022-12-23T20:37:46.217Z,2.21
2022-12-23T20:40:55.228Z,2.19
2022-12-23T20:47:21.620Z,2.18
2022-12-23T20:50:25.310Z,2.06
2022-12-23T20:53:30.664Z,2.18
2022-12-23T20:56:36.516Z,2.17
2022-12-23T20:59:40.223Z,2.17
2022-12-23T21:02:43.336Z,2.17
2022-12-23T21:05:46.620Z,2.12
2022-12-23T21:08:52.920Z,2.17
2022-12-23T21:11:56.183Z,2.09
2022-12-23T21:14:59.772Z,2.15
2022-12-23T21:18:03.235Z,2.13
2022-12-23T21:21:06.071Z,2.12
2022-12-23T21:24:09.781Z,2.11
2022-12-23T21:27:12.346Z,2.13
2022-12-23T21:30:15.552Z,2.12
2022-12-23T21:33:18.342Z,2.13
2022-12-23T21:36:23.430Z,2.14
2022-12-23T21:39:26.868Z,2.12
2022-12-23T21:42:29.650Z,2.16
2022-12-23T21:45:32.839Z,2.16
2022-12-23T21:48:36.622Z,2.16
2022-12-23T21:51:41.049Z,2.17
2022-12-23T21:54:44.358Z,2.18
2022-12-23T21:57:47.343Z,2.18
2022-12-23T22:00:50.449Z,2.20
2022-12-23T22:03:54.065Z,2.20
2022-12-23T22:06:56.614Z,2.20
2022-12-23T22:09:59.469Z,2.21
2022-12-23T22:13:02.228Z,2.12
2022-12-23T22:16:09.578Z,2.17
2022-12-23T22:19:13.081Z,2.24
2022-12-23T22:22:16.025Z,2.26
2022-12-23T22:25:18.705Z,2.29
2022-12-23T22:28:22.076Z,2.33
2022-12-23T22:31:31.861Z,2.37
2022-12-23T22:34:34.647Z,2.41
2022-12-23T22:37:37.376Z,2.44
2022-12-23T22:40:40.462Z,2.47
2022-12-23T22:43:42.994Z,2.47
2022-12-23T22:46:45.914Z,2.41
2022-12-23T22:49:48.889Z,2.36
2022-12-23T22:52:51.913Z,2.30
2022-12-23T22:55:59.165Z,2.22
2022-12-23T22:59:02.317Z,2.25
2022-12-23T23:02:05.201Z,2.26
2022-12-23T23:05:12.917Z,2.17
2022-12-23T23:08:15.936Z,2.24
2022-12-23T23:11:19.446Z,2.24
2022-12-23T23:14:22.361Z,2.27
2022-12-23T23:17:27.314Z,2.28
2022-12-23T23:20:30.052Z,2.32
2022-12-23T23:23:33.661Z,2.29
2022-12-23T23:26:36.328Z,2.37
2022-12-23T23:29:39.659Z,2.37
2022-12-23T23:32:42.200Z,2.38
2022-12-23T23:35:45.108Z,2.26
2022-12-23T23:39:32.643Z,2.96
2022-12-23T23:42:35.896Z,2.96
2022-12-23T23:45:39.886Z,2.37
2022-12-23T23:48:42.731Z,2.37
2022-12-23T23:51:45.453Z,2.36
2022-12-23T23:54:48.561Z,2.37
2022-12-23T23:57:51.284Z,2.38
